Map

Track Data

SID SEASON NUMBER BASIN SUBBASIN NAME ISO_TIME NATURE LAT LON WMO_WIND WMO_PRES WMO_AGENCY TRACK_TYPE DIST2LAND LANDFALL IFLAG USA_AGENCY USA_ATCF_ID USA_LAT USA_LON USA_RECORD USA_STATUS USA_WIND USA_PRES USA_SSHS USA_R34_NE USA_R34_SE USA_R34_SW USA_R34_NW USA_R50_NE USA_R50_SE USA_R50_SW USA_R50_NW USA_R64_NE USA_R64_SE USA_R64_SW USA_R64_NW USA_POCI USA_ROCI USA_RMW USA_EYE TOKYO_LAT TOKYO_LON TOKYO_GRADE TOKYO_WIND TOKYO_PRES TOKYO_R50_DIR TOKYO_R50_LONG TOKYO_R50_SHORT TOKYO_R30_DIR TOKYO_R30_LONG TOKYO_R30_SHORT TOKYO_LAND CMA_LAT CMA_LON CMA_CAT CMA_WIND CMA_PRES HKO_LAT HKO_LON HKO_CAT HKO_WIND HKO_PRES NEWDELHI_LAT NEWDELHI_LON NEWDELHI_GRADE NEWDELHI_WIND NEWDELHI_PRES NEWDELHI_CI NEWDELHI_DP NEWDELHI_POCI REUNION_LAT REUNION_LON REUNION_TYPE REUNION_WIND REUNION_PRES REUNION_TNUM REUNION_CI REUNION_RMW REUNION_R34_NE REUNION_R34_SE REUNION_R34_SW REUNION_R34_NW REUNION_R50_NE REUNION_R50_SE REUNION_R50_SW REUNION_R50_NW REUNION_R64_NE REUNION_R64_SE REUNION_R64_SW REUNION_R64_NW BOM_LAT BOM_LON BOM_TYPE BOM_WIND BOM_PRES BOM_TNUM BOM_CI BOM_RMW BOM_R34_NE BOM_R34_SE BOM_R34_SW BOM_R34_NW BOM_R50_NE BOM_R50_SE BOM_R50_SW BOM_R50_NW BOM_R64_NE BOM_R64_SE BOM_R64_SW BOM_R64_NW BOM_ROCI BOM_POCI BOM_EYE BOM_POS_METHOD BOM_PRES_METHOD NADI_LAT NADI_LON NADI_CAT NADI_WIND NADI_PRES WELLINGTON_LAT WELLINGTON_LON WELLINGTON_WIND WELLINGTON_PRES DS824_LAT DS824_LON DS824_STAGE DS824_WIND DS824_PRES TD9636_LAT TD9636_LON TD9636_STAGE TD9636_WIND TD9636_PRES TD9635_LAT TD9635_LON TD9635_WIND TD9635_PRES TD9635_ROCI NEUMANN_LAT NEUMANN_LON NEUMANN_CLASS NEUMANN_WIND NEUMANN_PRES MLC_LAT MLC_LON MLC_CLASS MLC_WIND MLC_PRES USA_GUST BOM_GUST BOM_GUST_PER REUNION_GUST REUNION_GUST_PER USA_SEAHGT USA_SEARAD_NE USA_SEARAD_SE USA_SEARAD_SW USA_SEARAD_NW STORM_SPEED STORM_DIR
1997152N06171 1997 34 WP MM NESTOR 1997-06-01 06:00:00 NR 6.00000 171.000 main 1971 1952 O_____________ jtwc_wp WP071997 6.00000 171.000 15 -1 7 262
1997152N06171 1997 34 WP MM NESTOR 1997-06-01 09:00:00 NR 5.95004 170.650 main 1952 1918 P_____________ WP071997 5.95004 170.650 15 -1 7 262
1997152N06171 1997 34 WP MM NESTOR 1997-06-01 12:00:00 NR 5.90000 170.300 main 1918 1900 O_____________ jtwc_wp WP071997 5.90000 170.300 15 -1 7 262
1997152N06171 1997 34 WP MM NESTOR 1997-06-01 15:00:00 NR 5.84998 169.950 main 1890 1867 P_____________ WP071997 5.84998 169.950 15 -1 7 262
1997152N06171 1997 34 WP MM NESTOR 1997-06-01 18:00:00 NR 5.80000 169.600 main 1867 1849 O_____________ jtwc_wp WP071997 5.80000 169.600 15 -1 7 262
1997152N06171 1997 34 WP MM NESTOR 1997-06-01 21:00:00 NR 5.74998 169.250 main 1840 1817 P_____________ WP071997 5.74998 169.250 15 -1 7 262
1997152N06171 1997 34 WP MM NESTOR 1997-06-02 00:00:00 NR 5.70000 168.900 main 1817 1801 O_____________ jtwc_wp WP071997 5.70000 168.900 15 -1 7 262
1997152N06171 1997 34 WP MM NESTOR 1997-06-02 03:00:00 NR 5.64998 168.550 main 1791 1770 P_____________ WP071997 5.64998 168.550 15 -1 7 262
1997152N06171 1997 34 WP MM NESTOR 1997-06-02 06:00:00 NR 5.60000 168.200 main 1770 1745 O_____________ jtwc_wp WP071997 5.60000 168.200 15 -1 7 261
1997152N06171 1997 34 WP MM NESTOR 1997-06-02 09:00:00 NR 5.54248 167.850 main 1740 1726 P_____________ WP071997 5.54248 167.850 15 -1 7 262
1997152N06171 1997 34 WP MM NESTOR 1997-06-02 12:00:00 NR 5.50000 167.500 main 1726 1711 O_____________ jtwc_wp WP071997 5.50000 167.500 15 -1 7 267
1997152N06171 1997 34 WP MM NESTOR 1997-06-02 15:00:00 NR 5.49998 167.150 main 1711 1693 P_____________ WP071997 5.49998 167.150 15 -1 7 270
1997152N06171 1997 34 WP MM NESTOR 1997-06-02 18:00:00 NR 5.50000 166.800 main 1693 1681 O_____________ jtwc_wp WP071997 5.50000 166.800 15 -1 7 267
1997152N06171 1997 34 WP MM NESTOR 1997-06-02 21:00:00 NR 5.45750 166.435 main 1677 1654 P_____________ WP071997 5.45750 166.435 15 -1 7 262
1997152N06171 1997 34 WP MM NESTOR 1997-06-03 00:00:00 NR 5.40000 166.100 main 1654 1632 O_____________ jtwc_wp WP071997 5.40000 166.100 15 -1 6 259
1997152N06171 1997 34 WP MM NESTOR 1997-06-03 03:00:00 NR 5.34248 165.828 main 1632 1625 P_____________ WP071997 5.34248 165.828 15 -1 5 259
1997152N06171 1997 34 WP MM NESTOR 1997-06-03 06:00:00 NR 5.30000 165.600 main 1625 1617 O_____________ jtwc_wp WP071997 5.30000 165.600 15 -1 4 262
1997152N06171 1997 34 WP MM NESTOR 1997-06-03 09:00:00 NR 5.28499 165.393 main 1617 1610 P_____________ WP071997 5.28499 165.393 15 -1 4 270
1997152N06171 1997 34 WP MM NESTOR 1997-06-03 12:00:00 NR 5.30000 165.200 main 1610 1604 O_____________ jtwc_wp WP071997 5.30000 165.200 15 -1 4 276
1997152N06171 1997 34 WP MM NESTOR 1997-06-03 15:00:00 NR 5.32749 165.007 main 1604 1601 P_____________ WP071997 5.32749 165.007 15 -1 4 284
1997152N06171 1997 34 WP MM NESTOR 1997-06-03 18:00:00 NR 5.40000 164.800 main 1606 1601 O_____________ jtwc_wp WP071997 5.40000 164.800 15 -1 5 294
1997152N06171 1997 34 WP MM NESTOR 1997-06-03 21:00:00 NR 5.52750 164.558 main 1607 1603 P_____________ WP071997 5.52750 164.558 17 -1 6 301
1997152N06171 1997 34 WP MM NESTOR 1997-06-04 00:00:00 NR 5.70000 164.300 main 1614 1610 O_____________ jtwc_wp WP071997 5.70000 164.300 20 -1 6 305
1997152N06171 1997 34 WP MM NESTOR 1997-06-04 03:00:00 NR 5.88499 164.050 main 1627 1623 P_____________ WP071997 5.88499 164.050 20 -1 6 309
1997152N06171 1997 34 WP MM NESTOR 1997-06-04 06:00:00 NR 6.10000 163.800 main 1628 1622 O_____________ jtwc_wp WP071997 6.10000 163.800 20 -1 7 313
1997152N06171 1997 34 WP MM NESTOR 1997-06-04 09:00:00 NR 6.32745 163.572 main 1634 1634 P_____________ WP071997 6.32745 163.572 20 -1 7 315
1997152N06171 1997 34 WP MM NESTOR 1997-06-04 12:00:00 NR 6.60000 163.300 main 1642 1640 O_____________ jtwc_wp WP071997 6.60000 163.300 20 -1 9 314
1997152N06171 1997 34 WP MM NESTOR 1997-06-04 15:00:00 NR 6.94250 162.930 main 1647 1647 P_____________ WP071997 6.94250 162.930 20 -1 11 311
1997152N06171 1997 34 WP MM NESTOR 1997-06-04 18:00:00 NR 7.30000 162.500 main 1654 1646 O_____________ jtwc_wp WP071997 7.30000 162.500 20 -1 11 308
1997152N06171 1997 34 WP MM NESTOR 1997-06-04 21:00:00 NR 7.62245 162.065 main 1651 1637 P_____________ WP071997 7.62245 162.065 20 -1 17 304
1997152N06171 1997 34 WP MM NESTOR 1997-06-05 00:00:00 TS 8.28000 161.060 1010 tokyo main 1646 1627 OO____________ jtwc_wp WP071997 7.90000 161.600 20 -1 9.80000 158.900 2 1010 0 0 0 21 301
1997152N06171 1997 34 WP MM NESTOR 1997-06-05 03:00:00 TS 8.69664 160.293 main 1629 1618 PP____________ WP071997 8.11494 161.115 20 -1 9.86004 158.650 2 1009 0 0 16 297
1997152N06171 1997 34 WP MM NESTOR 1997-06-05 06:00:00 TS 8.98571 159.657 1008 tokyo main 1621 1606 OO____________ jtwc_wp WP071997 8.30000 160.600 20 -1 9.90000 158.400 2 1008 0 0 0 13 294
1997152N06171 1997 34 WP MM NESTOR 1997-06-05 09:00:00 TS 9.20743 159.111 main 1606 1592 PP____________ WP071997 8.50739 160.072 22 -1 9.90748 158.150 2 1008 0 0 10 288
1997152N06171 1997 34 WP MM NESTOR 1997-06-05 12:00:00 TS 9.30000 158.700 1008 tokyo main 1592 1580 OO____________ jtwc_wp WP071997 8.70000 159.500 25 -1 9.90000 157.900 2 1008 0 0 0 8 282
1997152N06171 1997 34 WP MM NESTOR 1997-06-05 15:00:00 TS 9.38242 158.272 main 1580 1555 PP____________ WP071997 8.85742 158.872 27 -1 9.90742 157.673 2 1008 0 0 9 280
1997152N06171 1997 34 WP MM NESTOR 1997-06-05 18:00:00 TS 9.45000 157.800 1008 tokyo main 1565 1540 OO____________ jtwc_wp WP071997 9.00000 158.200 30 -1 9.90000 157.400 2 1008 0 0 0 10 277
1997152N06171 1997 34 WP MM NESTOR 1997-06-05 21:00:00 TS 9.50367 157.276 main 1540 1520 PP____________ WP071997 9.14241 157.507 32 -1 9.86493 157.045 2 1008 0 0 11 278
1997152N06171 1997 34 WP MM NESTOR 1997-06-06 00:00:00 TS 9.60000 156.700 1008 tokyo main 1520 1504 OO_O__________ jtwc_wp WP071997 9.30000 156.800 35 0 9.80000 156.600 2 1008 0 0 0 10.0000 156.700 TD 25 1006 12 279
1997152N06171 1997 34 WP MM NESTOR 1997-06-06 03:00:00 TS 9.68755 156.068 main 1504 1483 PP_P__________ WP071997 9.49249 156.078 35 0 9.70001 156.072 2 1008 0 0 10.0528 156.043 TD 25 1006 13 278
1997152N06171 1997 34 WP MM NESTOR 1997-06-06 06:00:00 TS 9.77273 155.436 1008 tokyo main 1486 1469 OO_O__________ jtwc_wp WP071997 9.70000 155.400 35 0 9.60000 155.500 2 1008 0 0 0 10.1000 155.400 TD 25 1006 12 278
1997152N06171 1997 34 WP MM NESTOR 1997-06-06 09:00:00 TS 9.85404 154.852 main 1479 1461 PP_P__________ WP071997 9.89986 154.812 35 0 9.51988 154.957 2 1008 0 0 10.1424 154.785 TD 25 1006 11 278
1997152N06171 1997 34 WP MM NESTOR 1997-06-06 12:00:00 TS 9.93333 154.300 1008 tokyo main 1461 1458 OO_O__________ jtwc_wp WP071997 10.1000 154.300 35 0 9.50000 154.400 2 1008 0 0 0 10.2000 154.200 TD 25 1006 11 280
1997152N06171 1997 34 WP MM NESTOR 1997-06-06 15:00:00 TS 10.0341 153.762 main 1458 1456 PP_P__________ WP071997 10.2924 153.835 35 0 9.53990 153.815 2 1008 0 0 10.2699 153.635 TD 27 1004 11 284
1997152N06171 1997 34 WP MM NESTOR 1997-06-06 18:00:00 TS 10.2000 153.233 1008 tokyo main 1467 1465 OO_O__________ jtwc_wp WP071997 10.5000 153.400 35 0 9.70000 153.200 2 1008 0 0 0 10.4000 153.100 TD 30 1002 11 291
1997152N06171 1997 34 WP MM NESTOR 1997-06-06 21:00:00 TS 10.4459 152.678 main 1481 1481 PP_P__________ WP071997 10.7275 152.935 35 0 9.99758 152.528 2 1008 0 0 10.6125 152.570 TD 30 1002 12 298
1997152N06171 1997 34 WP MM NESTOR 1997-06-07 00:00:00 TS 10.7667 152.167 1008 tokyo main 1519 1518 OO_O__________ jtwc_wp WP071997 11.0000 152.500 35 0 10.4000 151.900 2 1008 0 0 0 10.9000 152.100 TD 30 1002 12 307
1997152N06171 1997 34 WP MM NESTOR 1997-06-07 03:00:00 TS 11.1374 151.741 main 1548 1548 PP_P__________ WP071997 11.3349 152.127 35 0 10.8349 151.383 2 1007 0 0 11.2424 151.712 TD 30 1002 11 314
1997152N06171 1997 34 WP MM NESTOR 1997-06-07 06:00:00 TS 11.5154 151.369 1006 tokyo main 1586 1586 OOOO__________ jtwc_wp WP071997 11.7000 151.800 35 0 11.3000 151.000 2 1006 0 0 0 11.3000 151.000 0 19 1006 11.6000 151.400 TD 30 1002 10 319
1997152N06171 1997 34 WP MM NESTOR 1997-06-07 09:00:00 TS 11.8953 151.074 main 1621 1618 PPPP__________ WP071997 12.0649 151.500 35 0 11.7724 150.747 2 1005 0 0 11.7776 150.780 0 21 1005 11.9075 151.120 TD 32 1001 9 325
1997152N06171 1997 34 WP MM NESTOR 1997-06-07 12:00:00 TS 12.2533 150.840 1004 tokyo main 1656 1656 OOOO__________ jtwc_wp WP071997 12.4000 151.200 35 0 12.2000 150.600 2 1004 0 0 0 12.2000 150.600 1 23 1004 12.2000 150.900 TS 35 1000 8 327
1997152N06171 1997 34 WP MM NESTOR 1997-06-07 15:00:00 TS 12.5581 150.633 main 1684 1684 PPPP__________ WP071997 12.6726 150.828 35 0 12.5300 150.485 2 1002 0 0 12.5300 150.485 1 26 1002 12.5000 150.735 TS 37 998 7 328
1997152N06171 1997 34 WP MM NESTOR 1997-06-07 18:00:00 TS 12.8250 150.475 1000 tokyo main 1704 1704 OOOO__________ jtwc_wp WP071997 12.9000 150.500 35 0 12.8000 150.400 2 1000 0 0 0 12.8000 150.400 1 29 1000 12.8000 150.600 TS 40 996 6 331
1997152N06171 1997 34 WP MM NESTOR 1997-06-07 21:00:00 TS 13.0768 150.342 main 1732 1732 PPPP__________ WP071997 13.1074 150.320 40 0 13.0575 150.292 2 998 0 0 13.0425 150.307 1 29 999 13.1000 150.450 TS 40 996 6 334
1997152N06171 1997 34 WP MM NESTOR 1997-06-08 00:00:00 TS 13.3250 150.225 35 996 tokyo main 1752 1752 OOOO__________ jtwc_wp WP071997 13.3000 150.200 45 0 13.3000 150.200 3 35 996 0 9 80 80 0 13.3000 150.200 1 29 998 13.4000 150.300 TS 40 996 6 335
1997152N06171 1997 34 WP MM NESTOR 1997-06-08 03:00:00 TS 13.6038 150.091 main 1784 1784 PPPP__________ WP071997 13.4850 150.035 50 0 13.5575 150.150 3 40 993 0 9 80 80 13.6575 150.043 1 33 996 13.7150 150.135 TS 42 994 6 336
1997152N06171 1997 34 WP MM NESTOR 1997-06-08 06:00:00 TS 13.8750 149.975 45 990 tokyo main 1815 1815 OOOO__________ jtwc_wp WP071997 13.7000 149.900 55 0 13.8000 150.100 3 45 990 0 9 80 80 0 14.0000 149.900 2 38 995 14.0000 150.000 TS 45 992 5 340
1997152N06171 1997 34 WP MM NESTOR 1997-06-08 09:00:00 TS 14.1094 149.905 main 1835 1835 PPPP__________ WP071997 13.9925 149.835 60 0 14.0000 150.007 3 50 987 0 9 90 90 14.2300 149.835 2 41 992 14.2150 149.942 TS 47 991 5 346
1997152N06171 1997 34 WP MM NESTOR 1997-06-08 12:00:00 TS 14.3250 149.850 55 985 tokyo main 1857 1856 OOOO__________ jtwc_wp WP071997 14.3000 149.800 65 1 14.2000 149.900 4 55 985 9 50 50 9 100 100 0 14.4000 149.800 2 44 990 14.4000 149.900 STS 50 990 4 345
1997152N06171 1997 34 WP MM NESTOR 1997-06-08 15:00:00 TS 14.5375 149.781 main 1878 1878 PPPP__________ WP071997 14.5650 149.757 70 1 14.4425 149.800 4 57 982 9 50 50 9 105 105 14.5425 149.757 2 46 990 14.6000 149.807 STS 52 987 5 342
1997152N06171 1997 34 WP MM NESTOR 1997-06-08 18:00:00 TS 14.7500 149.700 60 980 tokyo main 1910 1910 OOOO__________ jtwc_wp WP071997 14.8000 149.700 75 1 14.7000 149.700 4 60 980 9 50 50 9 110 110 0 14.7000 149.700 3 48 990 14.8000 149.700 STS 55 985 5 339
1997152N06171 1997 34 WP MM NESTOR 1997-06-08 21:00:00 TS 14.9769 149.609 main 1930 1930 PPPP__________ WP071997 15.0075 149.615 82 1 14.9575 149.607 4 65 975 9 55 55 9 115 115 14.9425 149.615 3 53 985 15.0000 149.600 STS 60 980 5 337
1997152N06171 1997 34 WP MM NESTOR 1997-06-09 00:00:00 TS 15.2000 149.500 70 970 tokyo main 1951 1951 OOOO__________ jtwc_wp WP071997 15.2000 149.500 90 2 15.2000 149.500 5 70 970 9 60 60 9 120 120 0 15.2000 149.500 3 58 980 15.2000 149.500 T 65 975 5 331
1997152N06171 1997 34 WP MM NESTOR 1997-06-09 03:00:00 TS 15.4019 149.359 main 1972 1971 PPPP__________ WP071997 15.3925 149.350 95 2 15.4075 149.343 5 75 965 9 65 65 9 130 130 15.4075 149.343 3 63 975 15.4000 149.400 T 70 970 5 326
1997152N06171 1997 34 WP MM NESTOR 1997-06-09 06:00:00 TS 15.6000 149.225 80 960 tokyo main 1992 1992 OOOO__________ jtwc_wp WP071997 15.6000 149.200 100 3 15.6000 149.200 5 80 960 9 70 70 9 140 140 0 15.6000 149.200 4 68 970 15.6000 149.300 T 75 965 5 332
1997152N06171 1997 34 WP MM NESTOR 1997-06-09 09:00:00 TS 15.8012 149.142 main 2013 2013 PPPP__________ WP071997 15.8425 149.092 107 3 15.7925 149.135 5 82 955 9 75 75 9 150 150 15.7850 149.142 4 77 962 15.7850 149.200 T 77 960 5 342
1997152N06171 1997 34 WP MM NESTOR 1997-06-09 12:00:00 TS 16.0250 149.075 85 950 tokyo main 2036 2036 OOOO__________ jtwc_wp WP071997 16.1000 149.000 115 4 16.0000 149.100 5 85 950 9 80 80 9 160 160 0 16.0000 149.100 5 87 955 16.0000 149.100 T 80 955 5 344
1997152N06171 1997 34 WP MM NESTOR 1997-06-09 15:00:00 TS 16.2850 149.002 main 2068 2068 PPPP__________ WP071997 16.3425 148.915 120 4 16.2275 149.065 5 87 945 9 85 85 9 170 170 16.2850 149.015 5 87 955 16.2850 149.015 T 80 955 6 343
1997152N06171 1997 34 WP MM NESTOR 1997-06-09 18:00:00 TS 16.5750 148.900 90 940 tokyo main 2101 2101 OOOO__________ jtwc_wp WP071997 16.6000 148.800 125 4 16.5000 149.000 5 90 940 9 90 90 9 180 180 0 16.6000 148.900 5 87 955 16.6000 148.900 T 80 955 6 338
1997152N06171 1997 34 WP MM NESTOR 1997-06-09 21:00:00 TS 16.8837 148.753 main 2133 2133 PPPP__________ WP071997 16.8925 148.615 127 4 16.8424 148.895 5 92 937 9 95 95 9 185 185 16.8999 148.780 5 87 952 16.9000 148.722 T 82 952 7 332
1997152N06171 1997 34 WP MM NESTOR 1997-06-10 00:00:00 TS 17.2000 148.550 95 935 tokyo main 2156 2113 OOOO__________ jtwc_wp WP071997 17.2000 148.400 130 4 17.2000 148.700 5 95 935 9 100 100 9 190 190 0 17.2000 148.600 5 87 950 17.2000 148.500 ST 85 950 8 325
1997152N06171 1997 34 WP MM NESTOR 1997-06-10 03:00:00 TS 17.5075 148.288 main 2113 2070 PPPP__________ WP071997 17.4999 148.215 132 4 17.5151 148.365 5 97 932 9 100 100 9 195 195 17.5076 148.315 5 92 945 17.5075 148.257 ST 85 950 8 319
1997152N06171 1997 34 WP MM NESTOR 1997-06-10 06:00:00 TS 17.8000 148.000 100 930 tokyo main 2070 2032 OOOO__________ jtwc_wp WP071997 17.8000 148.000 135 4 17.8000 148.000 5 100 930 9 100 100 9 200 200 0 17.8000 148.000 5 97 940 17.8000 148.000 ST 85 950 8 317
1997152N06171 1997 34 WP MM NESTOR 1997-06-10 09:00:00 TS 18.0662 147.741 main 2028 1999 PPPP__________ WP071997 18.1075 147.715 137 5 18.0499 147.742 5 100 930 9 100 100 9 200 200 18.0574 147.750 5 97 940 18.0499 147.757 ST 85 950 7 316
1997152N06171 1997 34 WP MM NESTOR 1997-06-10 12:00:00 TS 18.3250 147.475 100 930 tokyo main 1999 1957 OOOO__________ jtwc_wp WP071997 18.4000 147.400 140 5 18.3000 147.500 5 100 930 9 100 100 9 200 200 0 18.3000 147.500 5 97 940 18.3000 147.500 ST 85 950 7 315
1997152N06171 1997 34 WP MM NESTOR 1997-06-10 15:00:00 TS 18.5943 147.194 main 1957 1915 PPPP__________ WP071997 18.6574 147.115 135 4 18.5924 147.215 5 100 930 9 100 100 9 200 200 18.5349 147.222 5 97 940 18.5924 147.222 ST 82 952 8 314
1997152N06171 1997 34 WP MM NESTOR 1997-06-10 18:00:00 TS 18.8750 146.875 100 930 tokyo main 1915 1869 OOOO__________ jtwc_wp WP071997 18.9000 146.800 130 4 18.9000 146.900 5 100 930 9 100 100 9 200 200 0 18.8000 146.900 5 97 940 18.9000 146.900 T 80 955 9 312
1997152N06171 1997 34 WP MM NESTOR 1997-06-10 21:00:00 TS 19.1712 146.506 main 1869 1824 PPPP__________ WP071997 19.1350 146.415 130 4 19.2074 146.572 5 97 932 9 100 100 9 200 200 19.1425 146.523 5 97 940 19.2000 146.515 T 80 955 9 309
1997152N06171 1997 34 WP MM NESTOR 1997-06-11 00:00:00 TS 19.4750 146.100 95 935 tokyo main 1824 1779 OOOO__________ jtwc_wp WP071997 19.4000 146.000 130 4 19.5000 146.200 5 95 935 9 100 100 9 200 200 0 19.5000 146.100 5 97 940 19.5000 146.100 T 80 955 10 308
1997152N06171 1997 34 WP MM NESTOR 1997-06-11 03:00:00 TS 19.7769 145.675 main 1779 1735 PPPP__________ WP071997 19.7424 145.600 127 4 19.7500 145.757 5 92 935 9 100 100 9 200 200 19.8150 145.642 5 92 945 19.7999 145.700 T 80 955 10 307
1997152N06171 1997 34 WP MM NESTOR 1997-06-11 06:00:00 TS 20.0750 145.250 90 935 tokyo main 1735 1702 OOOO__________ jtwc_wp WP071997 20.1000 145.200 125 4 20.0000 145.300 5 90 935 9 100 100 9 200 200 0 20.1000 145.200 5 87 950 20.1000 145.300 T 80 955 10 307
1997152N06171 1997 34 WP MM NESTOR 1997-06-11 09:00:00 TS 20.3567 144.864 main 1691 1658 PPPP__________ WP071997 20.3924 144.800 120 4 20.2923 144.900 5 90 935 9 100 100 9 200 200 20.3422 144.850 5 87 950 20.3999 144.907 T 82 952 9 308
1997152N06171 1997 34 WP MM NESTOR 1997-06-11 12:00:00 TS 20.6500 144.475 90 935 tokyo main 1648 1604 OOOO__________ jtwc_wp WP071997 20.7000 144.400 115 4 20.6000 144.500 5 90 935 9 100 100 9 200 200 0 20.6000 144.500 5 87 950 20.7000 144.500 ST 85 950 10 309
1997152N06171 1997 34 WP MM NESTOR 1997-06-11 15:00:00 TS 20.9800 144.034 main 1601 1553 PPPP__________ WP071997 21.0999 144.000 115 4 20.8926 144.035 5 90 935 9 100 100 9 200 200 20.9351 144.050 5 87 950 20.9925 144.050 ST 85 950 11 310
1997152N06171 1997 34 WP MM NESTOR 1997-06-11 18:00:00 TS 21.3250 143.600 90 935 tokyo main 1553 1504 OOOO__________ jtwc_wp WP071997 21.5000 143.600 115 4 21.2000 143.600 5 90 935 9 100 100 9 200 200 0 21.3000 143.600 5 87 950 21.3000 143.600 ST 85 950 10 311
1997152N06171 1997 34 WP MM NESTOR 1997-06-11 21:00:00 TS 21.6436 143.228 main 1504 1450 PPPP__________ WP071997 21.8000 143.192 115 4 21.5197 143.292 5 87 937 9 95 95 9 185 185 21.6273 143.242 5 87 950 21.6274 143.185 ST 85 950 10 315
1997152N06171 1997 34 WP MM NESTOR 1997-06-12 00:00:00 TS 22.0000 142.875 85 940 tokyo main 1450 1392 OOOO__________ jtwc_wp WP071997 22.1000 142.800 115 4 21.9000 143.000 5 85 940 9 90 90 9 170 170 0 22.0000 142.900 5 87 950 22.0000 142.800 ST 85 950 11 319
1997152N06171 1997 34 WP MM NESTOR 1997-06-12 03:00:00 TS 22.4382 142.474 main 1392 1323 PPPP__________ WP071997 22.4625 142.420 115 4 22.3777 142.585 5 85 942 9 85 85 9 165 140 22.4852 142.470 5 87 952 22.4275 142.420 ST 85 950 12 323
1997152N06171 1997 34 WP MM NESTOR 1997-06-12 06:00:00 TS 22.9250 142.125 85 945 tokyo main 1323 1264 OOOO__________ jtwc_wp WP071997 22.9000 142.100 115 4 22.9000 142.200 5 85 945 9 80 80 2 160 110 0 23.0000 142.100 5 87 955 22.9000 142.100 ST 85 950 11 331
1997152N06171 1997 34 WP MM NESTOR 1997-06-12 09:00:00 TS 23.4010 141.898 main 1264 1210 PPPP__________ WP071997 23.4124 141.855 115 4 23.3794 141.972 5 82 947 9 80 80 2 155 105 23.4348 141.912 5 82 957 23.3774 141.855 ST 82 952 11 341
1997152N06171 1997 34 WP MM NESTOR 1997-06-12 12:00:00 TS 23.9250 141.750 80 950 tokyo main 1210 1141 OOOO__________ jtwc_wp WP071997 24.0000 141.700 115 4 23.9000 141.800 5 80 950 9 80 80 2 150 100 0 23.9000 141.800 4 77 960 23.9000 141.700 T 80 955 12 347
1997152N06171 1997 34 WP MM NESTOR 1997-06-12 15:00:00 TS 24.5187 141.613 80 950 tokyo main 1141 1083 POPP__________ WP071997 24.6350 141.612 112 3 24.5000 141.600 5 80 950 9 80 80 2 150 100 0 24.4625 141.620 4 77 960 24.4775 141.620 T 77 957 12 352
1997152N06171 1997 34 WP MM NESTOR 1997-06-12 18:00:00 TS 25.1500 141.550 75 955 tokyo main 1073 1010 OOOO__________ jtwc_wp WP071997 25.3000 141.600 110 3 25.1000 141.500 5 75 955 9 75 75 9 120 120 0 25.1000 141.500 4 77 960 25.1000 141.600 T 75 960 13 358
1997152N06171 1997 34 WP MM NESTOR 1997-06-12 21:00:00 TS 25.7887 141.547 70 960 tokyo main 1010 942 POPP__________ WP071997 25.9425 141.620 107 3 25.7000 141.500 5 70 960 9 70 70 9 120 120 0 25.7774 141.498 4 72 965 25.7350 141.570 T 72 962 14 3
1997152N06171 1997 34 WP MM NESTOR 1997-06-13 00:00:00 TS 26.5000 141.625 70 965 tokyo main 942 870 OOOO__________ jtwc_wp WP071997 26.6000 141.700 105 3 26.5000 141.600 5 70 965 9 60 60 9 110 110 0 26.5000 141.600 4 68 970 26.4000 141.600 T 70 965 14 7
1997152N06171 1997 34 WP MM NESTOR 1997-06-13 03:00:00 TS 27.1936 141.750 70 965 tokyo main 873 805 POPP__________ WP071997 27.2773 141.798 105 3 27.2000 141.800 5 70 965 9 60 60 9 110 110 0 27.2348 141.733 4 68 970 27.0622 141.669 T 67 967 15 13
1997152N06171 1997 34 WP MM NESTOR 1997-06-13 06:00:00 TS 27.9500 142.000 70 965 tokyo main 794 730 OOOO__________ jtwc_wp WP071997 28.0000 142.000 105 3 28.0000 142.100 5 70 965 9 60 60 9 110 110 0 28.0000 142.000 4 68 970 27.8000 141.900 T 65 970 17 20
1997152N06171 1997 34 WP MM NESTOR 1997-06-13 09:00:00 TS 28.7657 142.414 65 970 tokyo main 720 654 POPP__________ WP071997 28.7849 142.340 92 2 28.8000 142.500 5 65 970 9 50 50 9 110 110 0 28.7999 142.433 4 63 975 28.6778 142.382 T 62 972 19 27
1997152N06171 1997 34 WP MM NESTOR 1997-06-13 12:00:00 TS 29.6000 142.975 65 970 tokyo main 658 608 OOOO__________ jtwc_wp WP071997 29.6000 142.800 80 1 29.6000 143.100 5 65 970 9 50 50 9 110 110 0 29.6000 143.000 3 58 980 29.6000 143.000 STS 60 975 19 31
1997152N06171 1997 34 WP MM NESTOR 1997-06-13 15:00:00 TS 30.3814 143.551 main 609 568 PPPP__________ WP071997 30.3769 143.285 77 1 30.3723 143.761 5 62 972 9 50 50 9 110 110 30.3272 143.607 3 58 980 30.4491 143.550 STS 60 975 19 34
1997152N06171 1997 34 WP MM NESTOR 1997-06-13 18:00:00 TS 31.2000 144.225 60 975 tokyo main 568 540 OOOO__________ jtwc_wp WP071997 31.2000 143.900 75 1 31.2000 144.500 4 60 975 9 50 50 9 110 110 0 31.1000 144.300 3 58 980 31.3000 144.200 STS 60 975 21 35
1997152N06171 1997 34 WP MM NESTOR 1997-06-13 21:00:00 TS 32.1165 144.971 main 547 538 PPPP__________ WP071997 32.1344 144.669 70 1 32.1756 145.255 4 57 977 9 45 45 9 110 110 31.9870 144.963 3 56 982 32.1688 144.998 STS 57 977 24 37
1997152N06171 1997 34 WP MM NESTOR 1997-06-14 00:00:00 TS 33.1000 145.920 55 980 tokyo main 541 541 OOOO__________ jtwc_wp WP071997 33.1000 145.600 65 1 33.2000 146.200 4 55 980 9 40 40 9 110 110 0 33.0000 145.900 3 54 985 33.1000 146.000 STS 55 980 27 42
1997152N06171 1997 34 WP MM NESTOR 1997-06-14 03:00:00 TS 34.1365 147.172 main 600 596 PPPP__________ WP071997 34.0431 146.604 62 0 34.1804 147.468 4 52 982 9 9 110 110 34.1910 147.418 3 51 987 34.1261 147.227 STS 52 982 30 48
1997152N06171 1997 34 WP MM NESTOR 1997-06-14 06:00:00 TS 35.0917 148.558 50 985 tokyo main 699 699 OOOO__________ jtwc_wp WP071997 34.9000 147.800 60 0 35.1000 148.900 4 50 985 0 9 110 110 0 35.3000 149.100 3 48 990 35.2000 148.600 STS 50 985 28 52
1997152N06171 1997 34 WP MM NESTOR 1997-06-14 09:00:00 TS 35.8367 149.877 main 793 793 PPP___________ WP071997 35.5852 149.184 57 0 35.9572 150.258 4 987 0 9 36.0988 150.503 3 43 992 STS 26 58
1997152N06171 1997 34 WP MM NESTOR 1997-06-14 12:00:00 ET 36.4778 151.300 990 tokyo main 870 870 OOO___________ jtwc_wp WP071997 36.2000 150.800 55 0 36.7000 151.700 6 990 0 0 0 36.7000 151.700 9 38 995 28 63
1997152N06171 1997 34 WP MM NESTOR 1997-06-14 15:00:00 ET 37.0928 152.944 main 923 923 PP____________ WP071997 36.8774 152.596 55 0 37.3082 153.293 6 991 0 0 9 30 67
1997152N06171 1997 34 WP MM NESTOR 1997-06-14 18:00:00 ET 37.6500 154.800 992 tokyo main 974 974 OO____________ jtwc_wp WP071997 37.5000 154.600 55 0 37.8000 155.000 6 992 0 0 0 32 72
1997152N06171 1997 34 WP MM NESTOR 1997-06-14 21:00:00 ET 38.0998 156.774 main 1018 1018 PP____________ WP071997 37.9885 156.810 55 0 38.2111 156.737 6 993 0 0 33 75
1997152N06171 1997 34 WP MM NESTOR 1997-06-15 00:00:00 ET 38.5000 158.800 994 tokyo main 1085 1085 OO____________ jtwc_wp WP071997 38.4000 159.000 55 0 38.6000 158.600 6 994 0 0 0 32 75
1997152N06171 1997 34 WP MM NESTOR 1997-06-15 03:00:00 ET 38.9292 160.784 main 1164 1162 PP____________ WP071997 38.8008 160.884 55 0 39.0576 160.684 6 994 0 0 32 74
1997152N06171 1997 34 WP MM NESTOR 1997-06-15 06:00:00 ET 39.3714 162.757 994 tokyo main 1251 1251 OO____________ jtwc_wp WP071997 39.2000 162.700 55 0 39.5000 162.800 6 994 0 0 0 32 74
1997152N06171 1997 34 WP MM NESTOR 1997-06-15 09:00:00 ET 39.7963 164.713 main 1343 1343 PP____________ WP071997 39.6068 164.647 52 0 39.8910 164.746 6 995 0 0 31 75
1997152N06171 1997 34 WP MM NESTOR 1997-06-15 12:00:00 ET 40.1600 166.620 996 tokyo main 1387 1387 OO____________ jtwc_wp WP071997 40.0000 166.700 50 0 40.2000 166.600 6 996 0 0 0 29 79
1997152N06171 1997 34 WP MM NESTOR 1997-06-15 15:00:00 ET 40.3625 168.442 main 1456 1456 _P____________ WP071997 -1 40.3625 168.442 6 997 0 0 27 83
1997152N06171 1997 34 WP MM NESTOR 1997-06-15 18:00:00 ET 40.5000 170.200 998 tokyo main 1544 1544 _O____________ -1 40.5000 170.200 6 998 0 0 0 26 82
1997152N06171 1997 34 WP MM NESTOR 1997-06-15 21:00:00 ET 40.7254 171.903 main 1613 1613 _P____________ -1 40.7254 171.903 6 999 0 0 25 79
1997152N06171 1997 34 WP MM NESTOR 1997-06-16 00:00:00 ET 41.0000 173.500 1000 tokyo main 1669 1669 _O____________ -1 41.0000 173.500 6 1000 0 0 0 24 76
1997152N06171 1997 34 WP MM NESTOR 1997-06-16 03:00:00 ET 41.2967 174.973 main 1717 1670 _P____________ -1 41.2967 174.973 6 1000 0 0 23 75
1997152N06171 1997 34 WP MM NESTOR 1997-06-16 06:00:00 ET 41.6000 176.400 1000 tokyo main 1665 1580 _O____________ -1 41.6000 176.400 6 1000 0 0 0 22 76
1997152N06171 1997 34 WP MM NESTOR 1997-06-16 09:00:00 ET 41.8234 177.838 main 1580 1485 _P____________ -1 41.8234 177.838 6 1000 0 0 23 77
1997152N06171 1997 34 WP MM NESTOR 1997-06-16 12:00:00 ET 42.1000 179.400 1000 tokyo main 1480 1371 _O____________ -1 42.1000 179.400 6 1000 0 0 0 26 75
1997152N06171 1997 34 EP CP NESTOR 1997-06-16 15:00:00 ET 42.5160 181.213 main 1367 1247 _P____________ -1 42.5160 -178.787 6 1000 0 0 29 72
1997152N06171 1997 34 EP CP NESTOR 1997-06-16 18:00:00 ET 43.0000 183.200 main 1243 _O____________ -1 43.0000 183.200 6 1000 0 0 0 31 72

Digital Typhoon Data and Search

About IBTrACS Database

This database is a web-friendly format of International Best Track Archive for Climate Stewardship (IBTrACS), a global best track data archive curated by NOAA dating back to 1842.

Updated: 2021-12-08